De Kooy Airfield

EHKD · North Holland, 荷兰

罗盘
风向 的 风向 的 风向 到 风向 100° De Kooy Airfield 3/21
风: 11 kt, 4 beaufort

4 kt

10 kt
改变
0 1.000 2.000 3.000 4.000 5.000
OVC 1.500 ft
METAR EHKD 032155Z AUTO 10011KT 060V130 9999 OVC015 01/M02 Q1020 WHT

METAR De Kooy Airfield - EHKD/DHR

De Kooy Airfield是,荷兰中的中型机场。 该机场有一条跑道: 3/21. 该领域的国际民航组织标志是EHKD 它的国际航空运输协会代码是DHR.

这份报告是针对2022年12月3日 22:55, 当地时间在De Kooy Airfield进行的。

机场观察

风向为100°,速度为11 kt。 风向在060°和130°之间变化。

可见度为10 km 或者更多。

有乌云密布在1.500 ft的高度。 破损或更高的上限为1.500 ft。

温度为1 °C,阵风为-6 °C。 露点为-2 °C,相对湿度为81%。 海平面上的气压为1020 hPa (QNH)。

白天

今天,太阳从08:33升起,在16:27降落。 这适用于De Kooy Airfield,世界夏令时可能有所不同。 当地时间与世界标准时间之间的时差为+1 小时。 当前,没有夏令时有效。

公司介绍

在这个机场,你可以找到飞行学校。 这个机场上的公司有Vliegles.nl 和 AeroClub Maritime Vliegopleidingen。

体会

在这个机场有飞行课程。 你可以在没有任何经验的情况下预订飞行课程。 在De Kooy Airfield预订最多的飞行课程类型是Basic flying lessons Den Helder。 这些课程的价格从€ 199开始。 在这里阅读更多关于Basic flying lessons Den Helder的信息。你也可以在这个网站上进行预订。

跑道

Id 标题 侧风 逆风 侧风 %
3/21 034°-214° 10 kt 4 kt 91 %

逆风成分最大的方向会被突出显示,并用于横风计算。 这并不一定意味着这个方向在使用。

乌云

1.500 ft OVC 乌云密布

温度 & 天气

温度 1 °C
露点 -2 °C
相对湿度 81%
风寒 -6 °C
Kp-index 0 (0-9)

白天

日出
08:33 (9:24)
中午
12:30
日落
16:27

小工具

你想在你的网站上有一个关于De Kooy Airfield的当前航空天气(METAR)的小部件吗?

显示HTML代码

我们和第三方通过cookies跟踪您在我们网站上的互联网行为。如果你继续,我们认为你同意我们的饼干政策